createdAt,value
2019-03-15T03:25:44.951Z,6.37
2019-03-15T03:28:18.381Z,6.57
2019-03-15T03:30:51.657Z,8.13
2019-03-15T03:33:30.173Z,7.57
2019-03-15T03:36:03.429Z,8.87
2019-03-15T03:38:49.227Z,9.37
2019-03-15T03:44:23.661Z,13.60
2019-03-15T03:46:57.076Z,13.23
2019-03-15T03:49:30.315Z,13.17
2019-03-15T03:52:03.596Z,12.73
2019-03-15T03:54:36.963Z,11.53
2019-03-15T03:57:10.565Z,15.93
2019-03-15T03:59:50.693Z,16.57
2019-03-15T04:02:24.095Z,15.73
2019-03-15T04:08:06.345Z,14.13
2019-03-15T04:10:39.713Z,11.43
2019-03-15T04:13:12.987Z,14.73
2019-03-15T04:15:46.344Z,22.30
2019-03-15T04:18:19.719Z,23.93
2019-03-15T04:20:52.903Z,24.23
2019-03-15T04:23:26.196Z,23.20
2019-03-15T04:26:01.421Z,18.20
2019-03-15T04:28:34.763Z,18.50
2019-03-15T04:31:08.003Z,25.53
2019-03-15T04:33:41.251Z,20.50
2019-03-15T04:36:14.569Z,24.53
2019-03-15T04:38:47.908Z,22.03
2019-03-15T04:41:21.361Z,29.63
2019-03-15T04:43:54.656Z,32.63
2019-03-15T04:46:27.945Z,31.73
2019-03-15T05:18:46.303Z,22.47
2019-03-15T05:21:19.652Z,13.93
2019-03-15T05:23:53.042Z,20.97
2019-03-15T05:26:27.301Z,24.90
2019-03-15T05:29:00.614Z,15.80
2019-03-15T05:31:33.885Z,20.20
2019-03-15T05:34:07.060Z,18.37
2019-03-15T05:36:40.494Z,19.37
2019-03-15T05:39:28.743Z,14.20
2019-03-15T05:42:02.068Z,19.73
2019-03-15T05:44:44.595Z,17.83
2019-03-15T05:47:23.459Z,19.87
2019-03-15T05:49:56.762Z,15.50
2019-03-15T05:52:30.005Z,12.67
2019-03-15T05:55:03.574Z,21.37
2019-03-15T05:57:36.892Z,14.13
2019-03-15T06:00:13.742Z,20.13
2019-03-15T06:02:47.042Z,16.80
2019-03-15T06:05:22.111Z,14.90
2019-03-15T06:07:55.434Z,15.77
2019-03-15T06:10:29.985Z,12.10
2019-03-15T06:13:03.359Z,16.67
2019-03-15T06:15:36.624Z,10.27
2019-03-15T06:18:09.942Z,17.07
2019-03-15T06:20:43.315Z,18.60
2019-03-15T06:23:17.074Z,20.63
2019-03-15T06:25:50.403Z,19.00
2019-03-15T06:28:26.764Z,20.00
2019-03-15T06:31:00.156Z,17.60
2019-03-15T06:33:33.642Z,12.30
2019-03-15T06:36:07.933Z,7.53
2019-03-15T06:38:41.224Z,17.77
2019-03-15T06:41:19.761Z,12.83
2019-03-15T06:43:54.230Z,18.77
2019-03-15T06:46:27.522Z,16.77
2019-03-15T06:49:00.844Z,15.23
2019-03-15T06:51:34.200Z,16.93
2019-03-15T06:57:46.058Z,13.63
2019-03-15T07:00:19.341Z,11.37
2019-03-15T07:02:52.774Z,16.60
2019-03-15T07:05:27.085Z,13.67
2019-03-15T07:08:00.622Z,13.73
2019-03-15T07:10:34.078Z,14.80
2019-03-15T07:13:10.600Z,7.67
2019-03-15T07:15:44.613Z,14.50
2019-03-15T07:18:18.763Z,12.27
2019-03-15T07:20:52.207Z,11.40
2019-03-15T07:23:46.972Z,10.30
2019-03-15T07:26:20.254Z,12.17
2019-03-15T07:28:53.482Z,7.00
2019-03-15T07:31:26.741Z,12.93
2019-03-15T07:34:00.019Z,14.93
2019-03-15T07:36:33.430Z,7.33
2019-03-15T07:39:07.904Z,14.87
2019-03-15T07:41:41.204Z,10.93
2019-03-15T07:44:14.582Z,8.93
2019-03-15T07:46:50.929Z,10.33
2019-03-15T07:49:22.845Z,9.53
2019-03-15T07:51:57.276Z,4.70
2019-03-15T07:54:37.983Z,10.83
2019-03-15T07:57:05.608Z,11.43
2019-03-15T07:59:39.101Z,6.50
2019-03-15T08:02:12.328Z,8.40
2019-03-15T08:04:45.640Z,9.47
2019-03-15T08:07:20.035Z,6.07
2019-03-15T08:09:53.559Z,10.80
2019-03-15T08:12:26.985Z,7.47
2019-03-15T08:15:00.358Z,6.13
2019-03-15T08:17:33.729Z,8.97
2019-03-15T08:20:11.243Z,9.50
2019-03-15T08:22:56.652Z,11.77
2019-03-15T08:25:30.055Z,9.77
2019-03-15T08:28:03.286Z,11.77
2019-03-15T08:30:36.551Z,10.83
2019-03-15T08:33:33.320Z,7.50
2019-03-15T08:36:06.677Z,13.73
2019-03-15T08:38:47.277Z,7.87
2019-03-15T08:41:14.972Z,8.60
2019-03-15T08:43:48.246Z,4.37
2019-03-15T08:56:22.998Z,11.60
2019-03-15T08:58:56.333Z,9.83
2019-03-15T09:01:29.684Z,6.27
2019-03-15T09:04:03.071Z,9.77
2019-03-15T09:06:36.472Z,7.17
2019-03-15T09:09:15.430Z,8.47
2019-03-15T09:11:48.701Z,11.83
2019-03-15T09:14:23.368Z,10.53
2019-03-15T09:16:56.672Z,11.33
2019-03-15T09:19:29.983Z,11.83
2019-03-15T09:22:03.249Z,8.13
2019-03-15T09:24:36.634Z,10.30
2019-03-15T09:27:10.692Z,11.20
2019-03-15T09:29:44.274Z,15.50
2019-03-15T09:32:17.651Z,13.43
2019-03-15T09:34:51.101Z,11.10
2019-03-15T09:37:24.452Z,8.37
2019-03-15T09:39:59.064Z,10.87
2019-03-15T09:42:34.776Z,9.83
2019-03-15T09:45:12.571Z,6.93
2019-03-15T09:47:46.021Z,11.37
2019-03-15T09:50:33.755Z,8.33
2019-03-15T09:52:54.534Z,6.20
2019-03-15T09:55:33.401Z,4.97
2019-03-15T09:58:02.945Z,6.17
2019-03-15T10:00:37.510Z,6.63
2019-03-15T10:03:21.704Z,5.00
2019-03-15T10:05:45.647Z,4.53
2019-03-15T10:08:18.947Z,5.33
2019-03-15T10:10:52.332Z,12.23
2019-03-15T10:13:25.590Z,12.50
2019-03-15T10:15:58.974Z,13.10
2019-03-15T10:18:32.325Z,12.63
2019-03-15T10:21:09.048Z,9.43
2019-03-15T10:23:40.790Z,8.93
2019-03-15T10:26:15.372Z,12.17
2019-03-15T10:28:48.702Z,10.67
2019-03-15T10:31:21.999Z,8.28
2019-03-15T10:33:55.233Z,10.03
2019-03-15T10:36:28.513Z,10.50
2019-03-15T10:39:01.887Z,11.53
2019-03-15T10:41:38.267Z,12.33
2019-03-15T10:44:13.879Z,17.00
2019-03-15T10:46:47.282Z,18.70
2019-03-15T10:49:20.651Z,13.75
2019-03-15T10:55:10.576Z,9.98
2019-03-15T10:57:44.130Z,11.28
2019-03-15T11:00:22.824Z,9.13
2019-03-15T11:02:56.052Z,8.03
2019-03-15T11:05:29.411Z,7.80
2019-03-15T11:08:02.688Z,9.73
2019-03-15T11:11:24.970Z,11.83
2019-03-15T11:13:22.546Z,9.93
2019-03-15T11:16:03.271Z,12.00
2019-03-15T11:18:36.521Z,13.50
2019-03-15T11:21:10.721Z,13.80
2019-03-15T11:23:44.084Z,20.50
2019-03-15T11:26:17.494Z,19.03
2019-03-15T11:28:52.092Z,21.43
2019-03-15T11:31:25.435Z,19.47
2019-03-15T11:33:58.810Z,7.47
2019-03-15T11:36:32.177Z,10.90
2019-03-15T11:39:07.503Z,7.23
2019-03-15T11:41:40.986Z,12.17
2019-03-15T11:44:14.316Z,18.63
2019-03-15T11:46:47.762Z,17.67
2019-03-15T11:49:21.115Z,20.80
2019-03-15T11:51:54.493Z,17.40
2019-03-15T11:54:27.754Z,11.27
2019-03-15T11:57:01.112Z,12.53
2019-03-15T11:59:36.278Z,8.70
2019-03-15T12:02:10.871Z,13.00
2019-03-15T12:04:45.511Z,16.73
2019-03-15T12:07:18.905Z,11.13
2019-03-15T12:09:52.332Z,16.02
2019-03-15T12:12:25.766Z,11.80
2019-03-15T12:15:00.302Z,6.22
2019-03-15T12:17:33.705Z,10.72
2019-03-15T12:20:12.153Z,13.83
2019-03-15T12:22:49.538Z,12.28
2019-03-15T12:25:22.854Z,10.78
2019-03-15T12:27:56.286Z,5.92
2019-03-15T12:30:29.646Z,9.70
2019-03-15T12:33:03.072Z,5.65
2019-03-15T12:35:37.617Z,7.25
2019-03-15T12:38:10.942Z,13.22
2019-03-15T12:40:44.282Z,16.30
2019-03-15T12:43:17.592Z,14.57
2019-03-15T12:45:50.901Z,15.33
2019-03-15T12:48:24.312Z,15.87
2019-03-15T12:50:57.797Z,14.17
2019-03-15T12:53:33.642Z,15.90
2019-03-15T12:56:06.966Z,13.98
2019-03-15T12:58:40.213Z,15.53
2019-03-15T13:01:13.631Z,17.70
2019-03-15T13:03:53.712Z,22.57
2019-03-15T13:06:27.066Z,14.38
2019-03-15T13:09:00.340Z,10.17
2019-03-15T13:11:33.843Z,10.47
2019-03-15T13:14:07.120Z,6.63
2019-03-15T13:16:40.482Z,9.03
2019-03-15T13:19:13.821Z,8.08
2019-03-15T13:21:47.133Z,7.37
2019-03-15T13:24:20.494Z,9.53
2019-03-15T13:27:06.600Z,7.53
2019-03-15T13:29:28.888Z,10.50
2019-03-15T13:32:02.267Z,9.50
2019-03-15T13:34:37.117Z,9.38
2019-03-15T13:37:10.523Z,8.50
2019-03-15T13:39:44.675Z,9.18
2019-03-15T13:42:23.685Z,12.73
2019-03-15T13:44:57.105Z,9.78
2019-03-15T13:47:30.492Z,12.55
2019-03-15T13:50:04.049Z,6.25
2019-03-15T13:52:45.980Z,13.60
2019-03-15T13:55:19.199Z,6.92
2019-03-15T13:57:52.538Z,10.80
2019-03-15T14:00:25.787Z,7.62
2019-03-15T14:02:59.153Z,9.20
2019-03-15T14:05:34.432Z,6.45
2019-03-15T14:08:12.008Z,11.00
2019-03-15T14:10:49.698Z,8.68
2019-03-15T14:13:19.722Z,15.30
2019-03-15T14:15:54.193Z,6.87
2019-03-15T14:18:27.675Z,9.40
2019-03-15T14:21:01.026Z,8.80
2019-03-15T14:23:34.476Z,11.68
2019-03-15T14:26:08.045Z,9.95
2019-03-15T14:28:41.523Z,10.15
2019-03-15T14:31:14.971Z,12.63
2019-03-15T14:33:53.394Z,8.50
2019-03-15T14:36:26.505Z,8.45
2019-03-15T14:39:00.119Z,10.95
2019-03-15T14:41:33.816Z,13.88
2019-03-15T14:44:07.317Z,6.45
2019-03-15T14:46:40.662Z,12.35
2019-03-15T14:49:13.969Z,7.80
2019-03-15T14:51:47.293Z,14.90
2019-03-15T14:54:20.669Z,11.35
2019-03-15T14:56:53.934Z,12.40
2019-03-15T14:59:27.630Z,5.90
2019-03-15T15:02:00.918Z,10.32
2019-03-15T15:04:34.788Z,10.78
2019-03-15T15:07:08.262Z,11.48
2019-03-15T15:09:42.949Z,10.50
2019-03-15T15:12:16.249Z,13.53
2019-03-15T15:14:49.736Z,12.70
2019-03-15T15:17:55.241Z,15.28
2019-03-15T15:20:01.251Z,17.12
2019-03-15T15:22:35.643Z,16.62
2019-03-15T15:25:15.112Z,21.00
2019-03-15T15:27:48.436Z,15.55
2019-03-15T15:30:23.221Z,13.13
2019-03-15T15:32:58.577Z,14.43
2019-03-15T15:35:31.863Z,12.90
2019-03-15T15:38:05.162Z,18.48
2019-03-15T15:40:38.452Z,11.43
2019-03-15T15:43:12.640Z,15.13
2019-03-15T15:45:45.935Z,15.13
2019-03-15T15:48:20.508Z,14.03
2019-03-15T15:50:54.791Z,10.70
2019-03-15T15:53:28.192Z,10.20
2019-03-15T15:56:02.938Z,12.53
2019-03-15T15:58:36.377Z,9.80
2019-03-15T16:01:10.775Z,12.30
2019-03-15T16:03:45.857Z,10.28
2019-03-15T16:06:19.234Z,11.00
2019-03-15T16:08:52.647Z,11.93
2019-03-15T16:11:25.952Z,10.28
2019-03-15T16:13:59.212Z,12.37
2019-03-15T16:16:32.717Z,8.68
2019-03-15T16:19:06.365Z,12.78
2019-03-15T16:21:40.095Z,14.95
2019-03-15T16:24:13.383Z,10.50
2019-03-15T16:26:46.819Z,12.35
2019-03-15T16:29:21.778Z,13.35
2019-03-15T16:31:55.144Z,8.88
2019-03-15T16:34:28.550Z,11.12
2019-03-15T16:37:02.420Z,13.77
2019-03-15T16:39:37.170Z,524.90
2019-03-15T16:42:16.363Z,99.77
2019-03-15T16:44:53.276Z,77.92
2019-03-15T16:47:29.415Z,44.17
2019-03-15T16:50:02.816Z,18.55
2019-03-15T16:52:36.258Z,123.72
2019-03-15T16:55:13.560Z,53.78
2019-03-15T16:57:48.176Z,126.83
2019-03-15T17:00:21.464Z,20.73
2019-03-15T17:02:56.262Z,13.07
2019-03-15T17:05:29.529Z,17.63
2019-03-15T17:08:02.797Z,130.37
2019-03-15T17:10:36.198Z,51.27
2019-03-15T17:13:10.821Z,29.90
2019-03-15T17:15:44.162Z,54.87
2019-03-15T17:18:17.337Z,216.77
2019-03-15T17:20:51.720Z,371.83
2019-03-15T17:23:24.958Z,95.27
2019-03-15T17:25:58.145Z,51.23
2019-03-15T17:28:31.378Z,254.73
2019-03-15T17:31:09.810Z,82.37
2019-03-15T17:33:39.608Z,36.40
2019-03-15T17:36:12.917Z,320.33
2019-03-15T17:38:46.179Z,123.15
2019-03-15T17:41:19.550Z,360.67
2019-03-15T17:44:03.111Z,251.90
2019-03-15T17:46:36.373Z,434.20
2019-03-15T17:49:09.748Z,725.37
2019-03-15T17:51:55.594Z,255.70
2019-03-15T17:54:28.850Z,84.43
2019-03-15T17:57:02.122Z,453.60
2019-03-15T17:59:35.347Z,343.07
2019-03-15T18:02:08.763Z,608.87
2019-03-15T18:04:42.130Z,243.00
2019-03-15T18:07:16.493Z,341.47
2019-03-15T18:09:49.673Z,125.03
2019-03-15T18:12:23.032Z,491.20
2019-03-15T18:14:56.227Z,315.00
2019-03-15T18:17:29.647Z,265.47
2019-03-15T18:20:02.909Z,162.17
2019-03-15T18:22:36.298Z,300.67
2019-03-15T18:25:11.582Z,147.77
2019-03-15T18:27:44.933Z,97.17
2019-03-15T18:30:19.257Z,74.70
2019-03-15T18:32:52.805Z,270.63
2019-03-15T18:35:33.756Z,75.67
2019-03-15T18:38:01.235Z,191.07
2019-03-15T18:40:34.554Z,246.67
2019-03-15T18:43:07.994Z,173.00
2019-03-15T18:45:41.329Z,52.37
2019-03-15T18:48:14.697Z,301.77
2019-03-15T18:50:47.944Z,383.33
2019-03-15T18:53:21.254Z,375.57
2019-03-15T18:55:54.536Z,314.40
2019-03-15T18:58:28.154Z,415.50
2019-03-15T19:01:04.083Z,139.37
2019-03-15T19:03:37.447Z,229.30
2019-03-15T19:06:12.185Z,187.07
2019-03-15T19:08:45.548Z,134.90
2019-03-15T19:11:19.943Z,88.60
2019-03-15T19:13:53.353Z,36.30
2019-03-15T19:16:28.193Z,41.93
2019-03-15T19:19:01.490Z,50.43
2019-03-15T19:21:34.782Z,34.63
2019-03-15T19:24:08.175Z,37.23
2019-03-15T19:26:41.509Z,33.47
2019-03-15T19:29:14.895Z,37.10
2019-03-15T19:31:48.299Z,40.67
2019-03-15T19:34:25.766Z,34.53
2019-03-15T19:37:00.951Z,35.30
2019-03-15T19:39:34.176Z,38.33
2019-03-15T19:42:08.975Z,44.07
2019-03-15T19:44:42.255Z,712.80
2019-03-15T19:47:15.645Z,529.97
2019-03-15T19:49:50.051Z,42.63
2019-03-15T19:52:23.340Z,656.77
2019-03-15T19:55:00.755Z,574.07
2019-03-15T19:57:31.616Z,327.17
2019-03-15T20:00:08.812Z,187.33
2019-03-15T20:02:42.237Z,292.43
2019-03-15T20:05:15.817Z,133.57
2019-03-15T20:07:49.191Z,42.07
2019-03-15T20:10:22.553Z,47.27
2019-03-15T20:12:55.784Z,83.80
2019-03-15T20:15:32.250Z,70.57
2019-03-15T20:18:07.024Z,37.67
2019-03-15T20:20:41.733Z,32.87
2019-03-15T20:23:15.033Z,129.77
2019-03-15T20:26:05.814Z,48.03
2019-03-15T20:28:39.236Z,34.07
2019-03-15T20:31:16.337Z,41.30
2019-03-15T20:33:55.460Z,41.90
2019-03-15T20:36:24.835Z,31.03
2019-03-15T20:38:58.232Z,31.53
2019-03-15T20:41:31.500Z,31.70
2019-03-15T20:44:05.131Z,30.40
2019-03-15T20:46:44.643Z,32.33
2019-03-15T20:49:18.051Z,34.83
2019-03-15T20:51:51.500Z,32.93
2019-03-15T20:54:24.865Z,35.80
2019-03-15T20:57:00.564Z,36.57
2019-03-15T20:59:33.964Z,36.43
2019-03-15T21:02:07.247Z,33.30
2019-03-15T21:04:40.550Z,25.27
2019-03-15T21:07:15.073Z,20.73
2019-03-15T21:09:48.454Z,35.17
2019-03-15T21:12:21.692Z,36.30
2019-03-15T21:14:55.059Z,34.53
2019-03-15T21:17:28.247Z,27.67
2019-03-15T21:20:01.449Z,53.37
2019-03-15T21:22:42.258Z,19.90
2019-03-15T21:25:15.563Z,23.50
2019-03-15T21:27:54.098Z,24.63
2019-03-15T21:30:29.457Z,23.43
2019-03-15T21:33:02.772Z,24.63
2019-03-15T21:35:40.067Z,25.37
2019-03-15T21:38:13.358Z,23.87
2019-03-15T21:40:46.636Z,23.87
2019-03-15T21:43:26.663Z,18.47
2019-03-15T21:46:00.032Z,18.97
2019-03-15T21:48:33.294Z,13.63
2019-03-15T21:51:06.565Z,12.00
2019-03-15T21:53:39.979Z,14.27
2019-03-15T21:56:13.309Z,18.63
2019-03-15T21:58:48.248Z,22.10
2019-03-15T22:01:21.507Z,24.10
2019-03-15T22:03:56.464Z,21.13
2019-03-15T22:06:33.453Z,17.70
2019-03-15T22:09:07.791Z,16.03
2019-03-15T22:11:41.035Z,20.33
2019-03-15T22:14:14.355Z,15.13
2019-03-15T22:16:47.700Z,14.30
2019-03-15T22:19:20.924Z,18.73
2019-03-15T22:21:54.350Z,18.57
2019-03-15T22:24:34.790Z,22.77
2019-03-15T22:27:05.932Z,18.93
2019-03-15T22:29:48.629Z,21.00
2019-03-15T22:32:14.299Z,25.40
2019-03-15T22:34:47.623Z,21.87
2019-03-15T22:37:20.853Z,20.67
2019-03-15T22:40:00.935Z,22.83
2019-03-15T22:42:34.213Z,11.43
2019-03-15T22:48:27.313Z,25.03
2019-03-15T22:51:00.682Z,14.50
2019-03-15T22:53:33.981Z,17.87
2019-03-15T22:56:08.559Z,18.87
2019-03-15T22:58:41.813Z,18.73
2019-03-15T23:01:15.300Z,23.07
2019-03-15T23:10:59.171Z,14.47
2019-03-15T23:13:32.556Z,16.37
2019-03-15T23:18:47.412Z,18.87
2019-03-15T23:21:27.943Z,16.97
2019-03-15T23:24:01.191Z,11.17
2019-03-15T23:52:32.445Z,10.57
2019-03-15T23:55:06.732Z,14.43
2019-03-15T23:57:40.109Z,21.07
